| time (UTC) | temp C | wind direction | speed KPH | gust KPH | rain 1hr cm | rain 24hr cm | rain mn cm | humidity % | barometer mb |
| 20260906184003 | 32 | 142 | 3.2 | 12.9 | 0.00 | 0.00 | 0.00 | 67 | 1014.1 |
| 20260906183503 | 31 | 146 | 4.8 | 12.9 | 0.00 | 0.00 | 0.00 | 70 | 1014.2 |
| 20260906183003 | 31 | 134 | 3.2 | 11.3 | 0.00 | 0.00 | 0.00 | 68 | 1014.3 |
| 20260906182504 | 31 | 158 | 3.2 | 11.3 | 0.00 | 0.00 | 0.00 | 69 | 1014.3 |
| 20260906182004 | 31 | 161 | 4.8 | 12.9 | 0.00 | 0.00 | 0.00 | 70 | 1014.4 |
| 20260906181503 | 30 | 152 | 4.8 | 12.9 | 0.00 | 0.00 | 0.00 | 70 | 1014.5 |
| 20260906181003 | 30 | 151 | 6.4 | 14.5 | 0.00 | 0.00 | 0.00 | 72 | 1014.5 |
| 20260906180714 | 30 | 156 | 6.4 | 16.1 | 0.00 | 0.00 | 0.00 | 70 | 1014.4 |
| 20260906180003 | 30 | 165 | 6.4 | 16.1 | 0.00 | 0.00 | 0.00 | 71 | 1014.5 |
| 20260906175713 | 30 | 162 | 6.4 | 14.5 | 0.00 | 0.00 | 0.00 | 69 | 1014.5 |
| 20260906175004 | 30 | 146 | 8.0 | 17.7 | 0.00 | 0.00 | 0.00 | 70 | 1014.6 |
| 20260906174713 | 30 | 143 | 6.4 | 17.7 | 0.00 | 0.00 | 0.00 | 70 | 1014.6 |
| 20260906174003 | 30 | 147 | 6.4 | 16.1 | 0.00 | 0.00 | 0.00 | 72 | 1014.7 |
| 20260906173713 | 30 | 147 | 8.0 | 17.7 | 0.00 | 0.00 | 0.00 | 73 | 1014.7 |
| 20260906173003 | 30 | 165 | 8.0 | 17.7 | 0.00 | 0.00 | 0.00 | 71 | 1014.7 |
| 20260906172503 | 30 | 166 | 6.4 | 14.5 | 0.00 | 0.00 | 0.00 | 71 | 1014.8 |
| 20260906172003 | 29 | 144 | 6.4 | 16.1 | 0.00 | 0.00 | 0.00 | 74 | 1015.0 |
| 20260906171503 | 29 | 146 | 8.0 | 16.1 | 0.00 | 0.00 | 0.00 | 75 | 1015.1 |
| 20260906171003 | 29 | 155 | 6.4 | 16.1 | 0.00 | 0.00 | 0.00 | 73 | 1015.2 |
| 20260906170503 | 29 | 167 | 6.4 | 16.1 | 0.00 | 0.00 | 0.00 | 74 | 1015.3 |
| 20260906170003 | 28 | 156 | 8.0 | 16.1 | 0.00 | 0.00 | 0.00 | 76 | 1015.3 |
| 20260906165503 | 28 | 146 | 8.0 | 16.1 | 0.00 | 0.00 | 0.00 | 75 | 1015.4 |
| 20260906165004 | 28 | 141 | 4.8 | 12.9 | 0.00 | 0.00 | 0.00 | 77 | 1015.4 |
| 20260906164713 | 28 | 139 | 4.8 | 14.5 | 0.00 | 0.00 | 0.00 | 79 | 1015.3 |
| 20260906164003 | 28 | 153 | 4.8 | 14.5 | 0.00 | 0.00 | 0.00 | 78 | 1015.4 |
| 20260906163503 | 28 | 137 | 3.2 | 11.3 | 0.00 | 0.00 | 0.00 | 79 | 1015.5 |
| 20260906163003 | 28 | 143 | 3.2 | 11.3 | 0.00 | 0.00 | 0.00 | 78 | 1015.7 |
| 20260906162503 | 27 | 176 | 3.2 | 9.7 | 0.00 | 0.00 | 0.00 | 79 | 1015.7 |
| 20260906162003 | 27 | 189 | 1.6 | 9.7 | 0.00 | 0.00 | 0.00 | 80 | 1015.8 |
| 20260906161715 | 27 | 173 | 1.6 | 9.7 | 0.00 | 0.00 | 0.00 | 81 | 1015.9 |
| 20260906161003 | 27 | 109 | 1.6 | 6.4 | 0.00 | 0.00 | 0.00 | 81 | 1015.8 |
| 20260906160503 | 27 | 136 | 1.6 | 6.4 | 0.00 | 0.00 | 0.00 | 83 | 1015.8 |
| 20260906160004 | 27 | 135 | 1.6 | 6.4 | 0.00 | 0.00 | 0.00 | 81 | 1015.8 |
| 20260906155503 | 27 | 128 | 1.6 | 6.4 | 0.00 | 0.00 | 0.00 | 82 | 1015.7 |
| 20260906155003 | 27 | 133 | 3.2 | 9.7 | 0.00 | 0.00 | 0.00 | 82 | 1015.9 |
| 20260906154503 | 27 | 156 | 3.2 | 9.7 | 0.00 | 0.00 | 0.00 | 82 | 1015.8 |
| 20260906154003 | 27 | 176 | 3.2 | 9.7 | 0.00 | 0.00 | 0.00 | 82 | 1015.7 |
| 20260906153503 | 26 | 185 | 3.2 | 9.7 | 0.00 | 0.00 | 0.00 | 82 | 1015.7 |
| 20260906153003 | 26 | 214 | 3.2 | 8.0 | 0.00 | 0.00 | 0.00 | 82 | 1015.8 |
| 20260906152503 | 26 | 229 | 1.6 | 4.8 | 0.00 | 0.00 | 0.00 | 81 | 1015.8 |
| 20260906152003 | 26 | 258 | 0.0 | 4.8 | 0.00 | 0.00 | 0.00 | 82 | 1016.0 |
| 20260906151504 | 27 | 252 | 3.2 | 11.3 | 0.00 | 0.00 | 0.00 | 81 | 1016.0 |
| 20260906151003 | 27 | 251 | 4.8 | 11.3 | 0.00 | 0.00 | 0.00 | 81 | 1016.0 |
| 20260906150503 | 27 | 240 | 3.2 | 14.5 | 0.00 | 0.00 | 0.00 | 82 | 1016.1 |
| 20260906150003 | 27 | 186 | 3.2 | 14.5 | 0.00 | 0.00 | 0.00 | 82 | 1015.9 |
| 20260906145712 | 27 | 152 | 3.2 | 12.9 | 0.00 | 0.00 | 0.00 | 81 | 1015.4 |
| 20260906145003 | 27 | 146 | 4.8 | 12.9 | 0.00 | 0.00 | 0.00 | 81 | 1015.3 |
| 20260906144503 | 27 | 142 | 4.8 | 17.7 | 0.00 | 0.00 | 0.00 | 82 | 1015.3 |
| 20260906144003 | 27 | 139 | 6.4 | 17.7 | 0.00 | 0.00 | 0.00 | 81 | 1015.2 |
| 20260906143503 | 27 | 140 | 4.8 | 16.1 | 0.00 | 0.00 | 0.00 | 82 | 1015.1 |
| 20260906143003 | 27 | 140 | 4.8 | 16.1 | 0.00 | 0.00 | 0.00 | 82 | 1015.2 |
| 20260906142503 | 26 | 127 | 3.2 | 12.9 | 0.00 | 0.00 | 0.00 | 82 | 1015.2 |
| 20260906142003 | 26 | 118 | 3.2 | 11.3 | 0.00 | 0.00 | 0.00 | 83 | 1015.2 |
| 20260906141503 | 26 | 117 | 4.8 | 16.1 | 0.00 | 0.00 | 0.00 | 83 | 1015.2 |
| 20260906141003 | 26 | 126 | 6.4 | 16.1 | 0.00 | 0.00 | 0.00 | 83 | 1015.3 |
| 20260906140503 | 26 | 137 | 4.8 | 14.5 | 0.00 | 0.00 | 0.00 | 83 | 1015.3 |
| 20260906140003 | 26 | 127 | 3.2 | 11.3 | 0.00 | 0.00 | 0.00 | 83 | 1015.3 |
| 20260906135503 | 26 | 115 | 1.6 | 4.8 | 0.00 | 0.00 | 0.00 | 84 | 1015.3 |
| 20260906135003 | 26 | 139 | 1.6 | 11.3 | 0.00 | 0.00 | 0.00 | 84 | 1015.3 |
| 20260906134503 | 26 | 142 | 3.2 | 11.3 | 0.00 | 0.00 | 0.00 | 85 | 1015.3 |
| 20260906134003 | 26 | 125 | 3.2 | 14.5 | 0.00 | 0.00 | 0.00 | 84 | 1015.3 |
| 20260906133503 | 26 | 117 | 3.2 | 14.5 | 0.00 | 0.00 | 0.00 | 84 | 1015.4 |
| 20260906133003 | 26 | 105 | 3.2 | 11.3 | 0.00 | 0.00 | 0.00 | 85 | 1015.4 |
| 20260906132504 | 26 | 108 | 3.2 | 11.3 | 0.00 | 0.00 | 0.00 | 85 | 1015.3 |
| 20260906132003 | 26 | 103 | 1.6 | 6.4 | 0.00 | 0.00 | 0.00 | 85 | 1015.3 |
| 20260906131503 | 25 | 81 | 3.2 | 11.3 | 0.00 | 0.00 | 0.00 | 86 | 1015.2 |
| 20260906131003 | 25 | 78 | 3.2 | 11.3 | 0.00 | 0.00 | 0.00 | 86 | 1015.2 |
| 20260906130503 | 25 | 78 | 3.2 | 6.4 | 0.00 | 0.00 | 0.00 | 87 | 1015.2 |
| 20260906130003 | 25 | 86 | 1.6 | 6.4 | 0.00 | 0.00 | 0.00 | 87 | 1015.3 |
| 20260906125503 | 25 | 99 | 1.6 | 6.4 | 0.00 | 0.00 | 0.00 | 87 | 1015.2 |
| 20260906125003 | 25 | 101 | 1.6 | 6.4 | 0.00 | 0.00 | 0.00 | 87 | 1015.1 |
| 20260906124503 | 25 | 99 | 1.6 | 4.8 | 0.00 | 0.00 | 0.00 | 87 | 1015.0 |
| 20260906124213 | 25 | 100 | 1.6 | 4.8 | 0.00 | 0.00 | 0.00 | 88 | 1014.9 |
| 20260906123503 | 25 | 106 | 0.0 | 4.8 | 0.00 | 0.00 | 0.00 | 88 | 1014.7 |
| 20260906123004 | 25 | 107 | 0.0 | 3.2 | 0.00 | 0.00 | 0.00 | 88 | 1014.8 |
| 20260906122504 | 25 | 108 | 0.0 | 3.2 | 0.00 | 0.00 | 0.00 | 88 | 1014.7 |
| 20260906122212 | 25 | 112 | 0.0 | 3.2 | 0.00 | 0.00 | 0.00 | 88 | 1014.7 |
| 20260906121003 | 24 | 120 | 1.6 | 6.4 | 0.00 | 0.00 | 0.00 | 88 | 1014.6 |
| 20260906120503 | 24 | 138 | 1.6 | 8.0 | 0.00 | 0.00 | 0.00 | 88 | 1014.4 |
| 20260906120003 | 24 | 141 | 1.6 | 8.0 | 0.00 | 0.00 | 0.00 | 88 | 1014.5 |
| 20260906115503 | 24 | 130 | 1.6 | 4.8 | 0.00 | 0.00 | 0.00 | 88 | 1014.5 |
| 20260906115003 | 24 | 125 | 0.0 | 4.8 | 0.00 | 0.00 | 0.00 | 88 | 1014.5 |
| 20260906114503 | 24 | 125 | 0.0 | 1.6 | 0.00 | 0.00 | 0.00 | 88 | 1014.3 |
| 20260906114214 | 24 | 166 | 0.0 | 1.6 | 0.00 | 0.00 | 0.00 | 88 | 1014.2 |
| 20260906113713 | 24 | 0 | 0.0 | 0.0 | 0.00 | 0.00 | 0.00 | 87 | 1014.2 |
| 20260906113003 | 24 | 0 | 0.0 | 0.0 | 0.00 | 0.00 | 0.00 | 87 | 1014.1 |
| 20260906112503 | 25 | 0 | 0.0 | 0.0 | 0.00 | 0.00 | 0.00 | 87 | 1014.2 |
| 20260906112212 | 25 | 0 | 0.0 | 0.0 | 0.00 | 0.00 | 0.00 | 87 | 1014.2 |
| 20260906111503 | 25 | 0 | 0.0 | 0.0 | 0.00 | 0.00 | 0.00 | 87 | 1014.2 |
| 20260906111004 | 25 | 0 | 0.0 | 0.0 | 0.00 | 0.00 | 0.00 | 87 | 1014.3 |
| 20260906110503 | 25 | 0 | 0.0 | 0.0 | 0.00 | 0.00 | 0.00 | 86 | 1014.3 |
| 20260906110004 | 25 | 0 | 0.0 | 0.0 | 0.00 | 0.00 | 0.00 | 86 | 1014.5 |
| 20260906105713 | 25 | 0 | 0.0 | 0.0 | 0.00 | 0.00 | 0.00 | 86 | 1014.3 |
| 20260906105003 | 25 | 0 | 0.0 | 0.0 | 0.00 | 0.00 | 0.00 | 86 | 1014.4 |
| 20260906104503 | 25 | 0 | 0.0 | 0.0 | 0.00 | 0.00 | 0.00 | 86 | 1014.4 |
| 20260906104003 | 25 | 0 | 0.0 | 0.0 | 0.00 | 0.00 | 0.00 | 86 | 1014.3 |
| 20260906103503 | 25 | 0 | 0.0 | 0.0 | 0.00 | 0.00 | 0.00 | 86 | 1014.2 |
| 20260906103214 | 25 | 0 | 0.0 | 0.0 | 0.00 | 0.00 | 0.00 | 85 | 1014.2 |
| 20260906102713 | 25 | 0 | 0.0 | 0.0 | 0.00 | 0.00 | 0.00 | 85 | 1014.1 |
| 20260906102003 | 25 | 0 | 0.0 | 0.0 | 0.00 | 0.00 | 0.00 | 85 | 1013.9 |
| 20260906101503 | 25 | 119 | 0.0 | 1.6 | 0.00 | 0.00 | 0.00 | 85 | 1013.9 |
| 20260906101004 | 25 | 119 | 0.0 | 1.6 | 0.00 | 0.00 | 0.00 | 85 | 1014.0 |
| 20260906100503 | 25 | 119 | 0.0 | 3.2 | 0.00 | 0.00 | 0.00 | 85 | 1014.0 |
| 20260906100003 | 25 | 119 | 0.0 | 3.2 | 0.00 | 0.00 | 0.00 | 85 | 1014.0 |
| 20260906095503 | 25 | 119 | 0.0 | 3.2 | 0.00 | 0.00 | 0.00 | 85 | 1014.0 |
| 20260906095003 | 25 | 0 | 0.0 | 1.6 | 0.00 | 0.00 | 0.00 | 84 | 1013.8 |
| 20260906094504 | 25 | 0 | 0.0 | 0.0 | 0.00 | 0.00 | 0.00 | 84 | 1013.8 |
| 20260906094214 | 25 | 0 | 0.0 | 0.0 | 0.00 | 0.00 | 0.00 | 84 | 1013.8 |
| 20260906093503 | 25 | 0 | 0.0 | 0.0 | 0.00 | 0.00 | 0.00 | 84 | 1013.9 |
| 20260906093003 | 25 | 0 | 0.0 | 0.0 | 0.00 | 0.00 | 0.00 | 84 | 1013.9 |
| 20260906092503 | 25 | 0 | 0.0 | 0.0 | 0.00 | 0.00 | 0.00 | 84 | 1014.0 |
| 20260906092003 | 25 | 0 | 0.0 | 0.0 | 0.00 | 0.00 | 0.00 | 83 | 1014.0 |
| 20260906091504 | 25 | 119 | 0.0 | 1.6 | 0.00 | 0.00 | 0.00 | 83 | 1014.0 |
| 20260906091003 | 25 | 119 | 0.0 | 1.6 | 0.00 | 0.00 | 0.00 | 84 | 1013.9 |
| 20260906090503 | 25 | 119 | 0.0 | 1.6 | 0.00 | 0.00 | 0.00 | 83 | 1014.0 |
| 20260906090003 | 25 | 119 | 0.0 | 1.6 | 0.00 | 0.00 | 0.00 | 83 | 1014.0 |
| 20260906085503 | 25 | 119 | 0.0 | 1.6 | 0.00 | 0.00 | 0.00 | 83 | 1014.0 |
| 20260906085003 | 25 | 119 | 0.0 | 1.6 | 0.00 | 0.00 | 0.00 | 83 | 1014.0 |
| 20260906084503 | 25 | 119 | 0.0 | 1.6 | 0.00 | 0.00 | 0.00 | 83 | 1014.0 |
| 20260906084003 | 25 | 119 | 0.0 | 3.2 | 0.00 | 0.00 | 0.00 | 83 | 1014.0 |
| 20260906083714 | 25 | 119 | 0.0 | 3.2 | 0.00 | 0.00 | 0.00 | 83 | 1013.9 |
| 20260906083003 | 25 | 119 | 0.0 | 1.6 | 0.00 | 0.00 | 0.00 | 83 | 1013.8 |
| 20260906082503 | 25 | 119 | 0.0 | 1.6 | 0.00 | 0.00 | 0.00 | 83 | 1013.8 |
| 20260906082003 | 25 | 119 | 0.0 | 3.2 | 0.00 | 0.00 | 0.00 | 82 | 1013.8 |
| 20260906081503 | 26 | 119 | 0.0 | 3.2 | 0.00 | 0.00 | 0.00 | 82 | 1013.7 |
| 20260906081003 | 26 | 0 | 0.0 | 0.0 | 0.00 | 0.00 | 0.00 | 82 | 1013.8 |
| 20260906080504 | 26 | 0 | 0.0 | 0.0 | 0.00 | 0.00 | 0.00 | 82 | 1013.9 |
| 20260906080004 | 26 | 118 | 0.0 | 1.6 | 0.00 | 0.00 | 0.00 | 82 | 1013.8 |
| 20260906075714 | 26 | 118 | 0.0 | 3.2 | 0.00 | 0.00 | 0.00 | 82 | 1013.8 |
| 20260906075003 | 26 | 118 | 0.0 | 3.2 | 0.00 | 0.00 | 0.00 | 82 | 1013.7 |
| 20260906074503 | 26 | 118 | 0.0 | 1.6 | 0.00 | 0.00 | 0.00 | 82 | 1013.7 |
| 20260906074003 | 26 | 118 | 0.0 | 3.2 | 0.00 | 0.00 | 0.00 | 82 | 1013.7 |
| 20260906073714 | 26 | 118 | 0.0 | 3.2 | 0.00 | 0.00 | 0.00 | 81 | 1013.7 |
| 20260906073003 | 26 | 118 | 1.6 | 3.2 | 0.00 | 0.00 | 0.00 | 81 | 1013.6 |
| 20260906072503 | 26 | 119 | 1.6 | 3.2 | 0.00 | 0.00 | 0.00 | 81 | 1013.7 |
| 20260906072003 | 26 | 119 | 0.0 | 3.2 | 0.00 | 0.00 | 0.00 | 81 | 1013.7 |
| 20260906071503 | 26 | 131 | 0.0 | 3.2 | 0.00 | 0.00 | 0.00 | 81 | 1013.8 |
| 20260906071003 | 26 | 129 | 0.0 | 4.8 | 0.00 | 0.00 | 0.00 | 80 | 1013.7 |
| 20260906070503 | 26 | 126 | 1.6 | 8.0 | 0.00 | 0.00 | 0.00 | 80 | 1013.8 |
| 20260906070004 | 26 | 114 | 1.6 | 8.0 | 0.00 | 0.00 | 0.00 | 80 | 1013.8 |
| 20260906065503 | 26 | 110 | 1.6 | 4.8 | 0.00 | 0.00 | 0.00 | 80 | 1013.8 |
| 20260906065003 | 26 | 117 | 1.6 | 4.8 | 0.00 | 0.00 | 0.00 | 80 | 1013.8 |
| 20260906064713 | 26 | 121 | 1.6 | 4.8 | 0.00 | 0.00 | 0.00 | 80 | 1013.8 |
| 20260906064003 | 26 | 120 | 1.6 | 6.4 | 0.00 | 0.00 | 0.00 | 79 | 1013.9 |
| 20260906063503 | 26 | 116 | 1.6 | 6.4 | 0.00 | 0.00 | 0.00 | 79 | 1014.0 |
| 20260906063214 | 26 | 114 | 1.6 | 6.4 | 0.00 | 0.00 | 0.00 | 79 | 1014.0 |
| 20260906062713 | 26 | 110 | 1.6 | 4.8 | 0.00 | 0.00 | 0.00 | 79 | 1014.1 |
| 20260906062003 | 27 | 110 | 1.6 | 4.8 | 0.00 | 0.00 | 0.00 | 79 | 1014.0 |
| 20260906061503 | 27 | 117 | 1.6 | 4.8 | 0.00 | 0.00 | 0.00 | 79 | 1014.0 |
| 20260906061003 | 27 | 123 | 1.6 | 4.8 | 0.00 | 0.00 | 0.00 | 79 | 1014.2 |
| 20260906060503 | 27 | 128 | 1.6 | 9.7 | 0.00 | 0.00 | 0.00 | 78 | 1014.2 |
| 20260906060003 | 27 | 126 | 1.6 | 9.7 | 0.00 | 0.00 | 0.00 | 78 | 1014.1 |
| 20260906055713 | 27 | 126 | 1.6 | 9.7 | 0.00 | 0.00 | 0.00 | 78 | 1014.0 |
| 20260906055003 | 27 | 112 | 1.6 | 4.8 | 0.00 | 0.00 | 0.00 | 78 | 1014.0 |
| 20260906054503 | 27 | 100 | 1.6 | 4.8 | 0.00 | 0.00 | 0.00 | 78 | 1014.0 |
| 20260906054003 | 27 | 64 | 1.6 | 3.2 | 0.00 | 0.00 | 0.00 | 77 | 1014.0 |
| 20260906053713 | 27 | 48 | 1.6 | 4.8 | 0.00 | 0.00 | 0.00 | 77 | 1014.0 |
| 20260906053003 | 27 | 81 | 1.6 | 6.4 | 0.00 | 0.00 | 0.00 | 77 | 1013.9 |
| 20260906052713 | 27 | 91 | 1.6 | 6.4 | 0.00 | 0.00 | 0.00 | 77 | 1013.9 |
| 20260906052003 | 27 | 96 | 1.6 | 6.4 | 0.00 | 0.00 | 0.00 | 77 | 1013.9 |
| 20260906051503 | 27 | 103 | 1.6 | 6.4 | 0.00 | 0.00 | 0.00 | 77 | 1013.9 |
| 20260906051003 | 27 | 99 | 1.6 | 4.8 | 0.00 | 0.00 | 0.00 | 77 | 1013.9 |
| 20260906050503 | 27 | 85 | 1.6 | 4.8 | 0.00 | 0.00 | 0.00 | 76 | 1013.9 |
| 20260906050004 | 28 | 77 | 1.6 | 4.8 | 0.00 | 0.00 | 0.00 | 76 | 1014.0 |
| 20260906045503 | 28 | 77 | 1.6 | 6.4 | 0.00 | 0.00 | 0.00 | 76 | 1013.9 |
| 20260906045003 | 28 | 78 | 1.6 | 6.4 | 0.00 | 0.00 | 0.00 | 76 | 1013.9 |
| 20260906044503 | 28 | 77 | 1.6 | 4.8 | 0.00 | 0.00 | 0.00 | 76 | 1014.0 |
| 20260906044003 | 28 | 76 | 3.2 | 4.8 | 0.00 | 0.00 | 0.00 | 76 | 1013.8 |
| 20260906043503 | 28 | 76 | 3.2 | 4.8 | 0.00 | 0.00 | 0.00 | 76 | 1013.8 |
| 20260906043003 | 28 | 76 | 3.2 | 6.4 | 0.00 | 0.00 | 0.00 | 76 | 1013.9 |
| 20260906042503 | 28 | 76 | 3.2 | 6.4 | 0.00 | 0.00 | 0.00 | 75 | 1013.9 |
| 20260906042003 | 28 | 76 | 1.6 | 4.8 | 0.00 | 0.00 | 0.00 | 76 | 1013.9 |
| 20260906041503 | 28 | 75 | 1.6 | 4.8 | 0.00 | 0.00 | 0.00 | 76 | 1013.9 |
| 20260906041003 | 28 | 71 | 1.6 | 6.4 | 0.00 | 0.00 | 0.00 | 75 | 1013.9 |
| 20260906040503 | 28 | 67 | 1.6 | 6.4 | 0.00 | 0.00 | 0.00 | 75 | 1014.0 |
| 20260906040003 | 28 | 66 | 1.6 | 4.8 | 0.00 | 0.00 | 0.00 | 75 | 1014.0 |
| 20260906035503 | 28 | 66 | 1.6 | 4.8 | 0.00 | 0.00 | 0.00 | 75 | 1014.0 |
| 20260906035003 | 28 | 66 | 1.6 | 4.8 | 0.00 | 0.00 | 0.00 | 75 | 1014.0 |
| 20260906034503 | 28 | 66 | 0.0 | 4.8 | 0.00 | 0.00 | 0.00 | 75 | 1014.0 |
| 20260906034003 | 28 | 66 | 1.6 | 4.8 | 0.00 | 0.00 | 0.00 | 74 | 1014.0 |
| 20260906033503 | 29 | 66 | 1.6 | 4.8 | 0.00 | 0.00 | 0.00 | 74 | 1014.0 |
| 20260906033003 | 29 | 67 | 1.6 | 4.8 | 0.00 | 0.00 | 0.00 | 74 | 1013.8 |
| 20260906032503 | 29 | 66 | 1.6 | 4.8 | 0.00 | 0.00 | 0.00 | 74 | 1013.8 |
| 20260906032004 | 29 | 64 | 3.2 | 4.8 | 0.00 | 0.00 | 0.00 | 74 | 1013.8 |
| 20260906031503 | 29 | 57 | 3.2 | 6.4 | 0.00 | 0.00 | 0.00 | 74 | 1013.8 |
| 20260906031003 | 29 | 54 | 3.2 | 6.4 | 0.00 | 0.00 | 0.00 | 73 | 1013.8 |
| 20260906030714 | 29 | 63 | 3.2 | 6.4 | 0.00 | 0.00 | 0.00 | 73 | 1013.7 |
| 20260906030003 | 29 | 77 | 3.2 | 8.0 | 0.00 | 0.00 | 0.00 | 73 | 1013.5 |
| 20260906025503 | 30 | 73 | 3.2 | 8.0 | 0.00 | 0.00 | 0.00 | 73 | 1013.3 |
| 20260906025003 | 30 | 70 | 3.2 | 6.4 | 0.00 | 0.00 | 0.00 | 73 | 1013.3 |
| 20260906024503 | 30 | 73 | 3.2 | 9.7 | 0.00 | 0.00 | 0.00 | 73 | 1013.2 |
| 20260906024005 | 30 | 74 | 3.2 | 9.7 | 0.00 | 0.00 | 0.00 | 73 | 1013.2 |
| 20260906023503 | 30 | 76 | 4.8 | 8.0 | 0.00 | 0.00 | 0.00 | 73 | 1013.0 |
| 20260906023003 | 30 | 78 | 4.8 | 6.4 | 0.00 | 0.00 | 0.00 | 73 | 1013.0 |
| 20260906022503 | 30 | 76 | 3.2 | 6.4 | 0.00 | 0.00 | 0.00 | 72 | 1012.9 |
| 20260906022003 | 30 | 74 | 3.2 | 6.4 | 0.00 | 0.00 | 0.00 | 72 | 1013.0 |
| 20260906021714 | 30 | 74 | 3.2 | 6.4 | 0.00 | 0.00 | 0.00 | 72 | 1012.9 |
| 20260906021004 | 30 | 74 | 3.2 | 4.8 | 0.00 | 0.00 | 0.00 | 72 | 1012.9 |
| 20260906020503 | 30 | 75 | 3.2 | 4.8 | 0.00 | 0.00 | 0.00 | 71 | 1012.6 |
| 20260906020003 | 30 | 72 | 3.2 | 6.4 | 0.00 | 0.00 | 0.00 | 71 | 1012.5 |
| 20260906015713 | 30 | 68 | 3.2 | 6.4 | 0.00 | 0.00 | 0.00 | 71 | 1012.3 |
| 20260906015003 | 30 | 68 | 3.2 | 8.0 | 0.00 | 0.00 | 0.00 | 71 | 1012.2 |
| 20260906014503 | 30 | 73 | 3.2 | 4.8 | 0.00 | 0.00 | 0.00 | 71 | 1012.3 |
| 20260906014003 | 30 | 72 | 3.2 | 4.8 | 0.00 | 0.00 | 0.00 | 70 | 1012.2 |
| 20260906013503 | 30 | 71 | 3.2 | 4.8 | 0.00 | 0.00 | 0.00 | 70 | 1012.1 |
| 20260906013214 | 31 | 72 | 3.2 | 4.8 | 0.00 | 0.00 | 0.00 | 70 | 1012.1 |
| 20260906012713 | 31 | 79 | 3.2 | 4.8 | 0.00 | 0.00 | 0.00 | 70 | 1012.1 |
| 20260906012003 | 31 | 79 | 3.2 | 6.4 | 0.00 | 0.00 | 0.00 | 70 | 1012.0 |
| 20260906011713 | 31 | 73 | 3.2 | 6.4 | 0.00 | 0.00 | 0.00 | 70 | 1011.9 |
| 20260906011214 | 31 | 54 | 1.6 | 4.8 | 0.00 | 0.00 | 0.00 | 70 | 1012.0 |
| 20260906010503 | 31 | 61 | 3.2 | 6.4 | 0.00 | 0.00 | 0.00 | 69 | 1011.8 |
| 20260906010003 | 31 | 71 | 3.2 | 6.4 | 0.00 | 0.00 | 0.00 | 69 | 1011.9 |
| 20260906005503 | 31 | 79 | 3.2 | 4.8 | 0.00 | 0.00 | 0.00 | 69 | 1011.8 |
| 20260906005003 | 31 | 76 | 3.2 | 6.4 | 0.00 | 0.00 | 0.00 | 68 | 1011.8 |
| 20260906004503 | 31 | 73 | 1.6 | 6.4 | 0.00 | 0.00 | 0.00 | 68 | 1011.8 |
| 20260906004212 | 31 | 73 | 1.6 | 6.4 | 0.00 | 0.00 | 0.00 | 68 | 1011.8 |
| 20260906003503 | 31 | 86 | 1.6 | 4.8 | 0.00 | 0.00 | 0.00 | 68 | 1011.8 |
| 20260906003003 | 31 | 100 | 3.2 | 6.4 | 0.00 | 0.00 | 0.00 | 67 | 1011.6 |
| 20260906002713 | 32 | 100 | 3.2 | 6.4 | 0.00 | 0.00 | 0.00 | 68 | 1011.6 |
| 20260906002003 | 32 | 100 | 3.2 | 11.3 | 0.00 | 0.00 | 0.00 | 67 | 1011.5 |
| 20260906001503 | 32 | 105 | 4.8 | 11.3 | 0.00 | 0.00 | 0.00 | 67 | 1011.5 |
| 20260906001214 | 32 | 102 | 4.8 | 11.3 | 0.00 | 0.00 | 0.00 | 67 | 1011.4 |
| 20260906000503 | 32 | 95 | 3.2 | 11.3 | 0.00 | 0.00 | 0.00 | 67 | 1011.4 |
| 20260906000003 | 32 | 105 | 3.2 | 11.3 | 0.00 | 0.00 | 0.00 | 66 | 1011.5 |
| 20260905235503 | 32 | 114 | 3.2 | 11.3 | 0.00 | 0.00 | 0.00 | 65 | 1011.6 |
| 20260905235003 | 32 | 133 | 3.2 | 11.3 | 0.00 | 0.00 | 0.00 | 65 | 1011.6 |
| 20260905234713 | 32 | 135 | 3.2 | 8.0 | 0.00 | 0.00 | 0.00 | 66 | 1011.6 |
| 20260905234214 | 32 | 118 | 4.8 | 14.5 | 0.00 | 0.00 | 0.00 | 65 | 1011.6 |
| 20260905233503 | 32 | 111 | 3.2 | 11.3 | 0.00 | 0.00 | 0.00 | 65 | 1011.6 |
| 20260905233003 | 32 | 117 | 3.2 | 11.3 | 0.00 | 0.00 | 0.00 | 65 | 1011.5 |
| 20260905232503 | 32 | 99 | 3.2 | 9.7 | 0.00 | 0.00 | 0.00 | 63 | 1011.5 |
| 20260905232003 | 33 | 84 | 3.2 | 8.0 | 0.00 | 0.00 | 0.00 | 64 | 1011.5 |
| 20260905231503 | 33 | 102 | 3.2 | 8.0 | 0.00 | 0.00 | 0.00 | 63 | 1011.6 |
| 20260905231008 | 33 | 140 | 4.8 | 14.5 | 0.00 | 0.00 | 0.00 | 63 | 1011.5 |
| 20260905230503 | 33 | 139 | 6.4 | 17.7 | 0.00 | 0.00 | 0.00 | 63 | 1011.5 |
| 20260905230213 | 33 | 126 | 6.4 | 17.7 | 0.00 | 0.00 | 0.00 | 63 | 1011.5 |
| 20260905225503 | 33 | 112 | 4.8 | 12.9 | 0.00 | 0.00 | 0.00 | 62 | 1011.5 |
| 20260905225003 | 33 | 121 | 4.8 | 14.5 | 0.00 | 0.00 | 0.00 | 62 | 1011.5 |
| 20260905224503 | 33 | 129 | 4.8 | 14.5 | 0.00 | 0.00 | 0.00 | 62 | 1011.5 |
| 20260905224003 | 33 | 136 | 6.4 | 17.7 | 0.00 | 0.00 | 0.00 | 60 | 1011.3 |
| 20260905223503 | 33 | 126 | 6.4 | 17.7 | 0.00 | 0.00 | 0.00 | 60 | 1011.4 |
| 20260905223003 | 33 | 129 | 6.4 | 17.7 | 0.00 | 0.00 | 0.00 | 61 | 1011.2 |
| 20260905222712 | 34 | 130 | 6.4 | 17.7 | 0.00 | 0.00 | 0.00 | 59 | 1011.2 |
| 20260905222003 | 34 | 138 | 8.0 | 17.7 | 0.00 | 0.00 | 0.00 | 60 | 1011.2 |
| 20260905221714 | 33 | 147 | 8.0 | 17.7 | 0.00 | 0.00 | 0.00 | 59 | 1011.2 |
| 20260905221003 | 33 | 141 | 8.0 | 19.3 | 0.00 | 0.00 | 0.00 | 59 | 1011.2 |
| 20260905220503 | 33 | 142 | 9.7 | 22.5 | 0.00 | 0.00 | 0.00 | 58 | 1011.2 |
| 20260905220004 | 34 | 144 | 8.0 | 22.5 | 0.00 | 0.00 | 0.00 | 57 | 1011.3 |
| 20260905215503 | 33 | 135 | 6.4 | 20.9 | 0.00 | 0.00 | 0.00 | 58 | 1011.3 |
| 20260905215003 | 33 | 112 | 4.8 | 11.3 | 0.00 | 0.00 | 0.00 | 59 | 1011.4 |
| 20260905214503 | 33 | 123 | 4.8 | 17.7 | 0.00 | 0.00 | 0.00 | 59 | 1011.5 |
| 20260905214219 | 33 | 130 | 4.8 | 17.7 | 0.00 | 0.00 | 0.00 | 59 | 1011.4 |
| 20260905213714 | 33 | 116 | 4.8 | 17.7 | 0.00 | 0.00 | 0.00 | 57 | 1011.5 |
| 20260905213003 | 33 | 91 | 6.4 | 16.1 | 0.00 | 0.00 | 0.00 | 60 | 1011.6 |
| 20260905212503 | 33 | 92 | 6.4 | 16.1 | 0.00 | 0.00 | 0.00 | 59 | 1011.6 |
| 20260905212003 | 33 | 98 | 4.8 | 14.5 | 0.00 | 0.00 | 0.00 | 57 | 1011.7 |
| 20260905211503 | 33 | 110 | 4.8 | 14.5 | 0.00 | 0.00 | 0.00 | 58 | 1011.8 |
| 20260905211213 | 33 | 118 | 4.8 | 16.1 | 0.00 | 0.00 | 0.00 | 57 | 1012.0 |
| 20260905210503 | 33 | 85 | 4.8 | 16.1 | 0.00 | 0.00 | 0.00 | 59 | 1012.1 |
| 20260905210213 | 33 | 72 | 4.8 | 12.9 | 0.00 | 0.00 | 0.00 | 58 | 1012.1 |
| 20260905205503 | 33 | 118 | 3.2 | 16.1 | 0.00 | 0.00 | 0.00 | 59 | 1012.2 |
| 20260905205003 | 33 | 121 | 4.8 | 16.1 | 0.00 | 0.00 | 0.00 | 60 | 1012.2 |
| 20260905204714 | 33 | 103 | 4.8 | 16.1 | 0.00 | 0.00 | 0.00 | 61 | 1012.3 |
| 20260905204004 | 32 | 80 | 6.4 | 12.9 | 0.00 | 0.00 | 0.00 | 60 | 1012.4 |
| 20260905203503 | 32 | 72 | 6.4 | 12.9 | 0.00 | 0.00 | 0.00 | 60 | 1012.6 |
| 20260905203003 | 32 | 65 | 6.4 | 14.5 | 0.00 | 0.00 | 0.00 | 58 | 1012.8 |
| 20260905202713 | 32 | 65 | 6.4 | 14.5 | 0.00 | 0.00 | 0.00 | 59 | 1012.9 |
| 20260905202003 | 32 | 78 | 6.4 | 16.1 | 0.00 | 0.00 | 0.00 | 57 | 1013.0 |
| 20260905201503 | 33 | 107 | 6.4 | 16.1 | 0.00 | 0.00 | 0.00 | 59 | 1013.0 |
| 20260905201212 | 33 | 116 | 4.8 | 17.7 | 0.00 | 0.00 | 0.00 | 58 | 1013.2 |
| 20260905200503 | 33 | 99 | 4.8 | 17.7 | 0.00 | 0.00 | 0.00 | 58 | 1013.5 |
| 20260905200003 | 32 | 102 | 6.4 | 14.5 | 0.00 | 0.00 | 0.00 | 60 | 1013.8 |
| 20260905195503 | 32 | 85 | 6.4 | 14.5 | 0.00 | 0.00 | 0.00 | 60 | 1013.8 |
| 20260905195003 | 32 | 64 | 6.4 | 14.5 | 0.00 | 0.00 | 0.00 | 59 | 1013.9 |
| 20260905194503 | 32 | 65 | 6.4 | 14.5 | 0.00 | 0.00 | 0.00 | 63 | 1013.8 |
| 20260905194003 | 32 | 66 | 6.4 | 12.9 | 0.00 | 0.00 | 0.00 | 63 | 1013.8 |
| 20260905193504 | 32 | 68 | 8.0 | 16.1 | 0.00 | 0.00 | 0.00 | 62 | 1013.8 |
| 20260905193003 | 32 | 71 | 6.4 | 16.1 | 0.00 | 0.00 | 0.00 | 62 | 1013.9 |
| 20260905192503 | 32 | 69 | 6.4 | 16.1 | 0.00 | 0.00 | 0.00 | 67 | 1013.8 |
| 20260905192003 | 32 | 77 | 6.4 | 16.1 | 0.00 | 0.00 | 0.00 | 64 | 1013.9 |
| 20260905191503 | 32 | 77 | 4.8 | 19.3 | 0.00 | 0.00 | 0.00 | 63 | 1014.0 |
| 20260905191003 | 32 | 61 | 6.4 | 19.3 | 0.00 | 0.00 | 0.00 | 65 | 1014.2 |
| 20260905190503 | 32 | 54 | 6.4 | 19.3 | 0.00 | 0.00 | 0.00 | 65 | 1014.4 |
| 20260905190003 | 32 | 51 | 6.4 | 19.3 | 0.00 | 0.00 | 0.00 | 64 | 1014.5 |
| 20260905185503 | 32 | 63 | 8.0 | 16.1 | 0.00 | 0.00 | 0.00 | 66 | 1014.6 |
| 20260905185003 | 31 | 60 | 9.7 | 19.3 | 0.00 | 0.00 | 0.00 | 66 | 1014.8 |
| 20260905184503 | 31 | 56 | 11.3 | 20.9 | 0.00 | 0.00 | 0.00 | 64 | 1014.9 |
| 20260905184214 | 31 | 56 | 9.7 | 20.9 | 0.00 | 0.00 | 0.00 | 65 | 1015.1 |